createdAt,value
2022-10-01T00:03:07.738Z,99572.67
2022-10-01T00:06:05.232Z,99569.20
2022-10-01T00:08:53.506Z,99570.75
2022-10-01T00:11:42.058Z,99574.89
2022-10-01T00:14:30.053Z,99574.81
2022-10-01T00:17:18.121Z,99576.66
2022-10-01T00:20:14.065Z,99572.17
2022-10-01T00:23:02.503Z,99574.45
2022-10-01T00:25:52.462Z,99568.91
2022-10-01T00:28:42.345Z,99567.52
2022-10-01T00:31:30.826Z,99565.75
2022-10-01T00:34:19.129Z,99558.17
2022-10-01T00:37:09.710Z,99555.24
2022-10-01T00:39:57.675Z,99549.56
2022-10-01T00:42:46.100Z,99547.05
2022-10-01T00:45:34.184Z,99547.58
2022-10-01T00:48:24.569Z,99550.60
2022-10-01T00:51:14.198Z,99549.07
2022-10-01T00:54:10.684Z,99549.11
2022-10-01T00:57:01.552Z,99549.67
2022-10-01T00:59:51.939Z,99545.98
2022-10-01T01:02:41.741Z,99545.36
2022-10-01T01:05:30.013Z,99548.09
2022-10-01T01:08:18.519Z,99546.84
2022-10-01T01:11:23.316Z,99546.34
2022-10-01T01:14:44.966Z,99542.09
2022-10-01T01:17:42.188Z,99540.31
2022-10-01T01:21:00.229Z,99535.95
2022-10-01T01:24:30.849Z,99536.95
2022-10-01T01:27:43.705Z,99539.73
2022-10-01T01:30:33.137Z,99540.54
2022-10-01T01:33:27.092Z,99540.03
2022-10-01T01:36:25.731Z,99539.91
2022-10-01T01:39:17.258Z,99536.86
2022-10-01T01:42:14.736Z,99537.89
2022-10-01T01:45:09.121Z,99535.80
2022-10-01T01:48:00.779Z,99532.15
2022-10-01T01:50:58.208Z,99528.27
2022-10-01T01:53:46.183Z,99528.82
2022-10-01T01:56:34.621Z,99530.39
2022-10-01T01:59:22.802Z,99526.56
2022-10-01T02:02:19.995Z,99523.65
2022-10-01T02:05:13.499Z,99519.88
2022-10-01T02:08:12.974Z,99517.33
2022-10-01T02:11:38.335Z,99514.94
2022-10-01T02:14:59.167Z,99517.70
2022-10-01T02:18:48.429Z,99521.00
2022-10-01T02:22:05.096Z,99520.06
2022-10-01T02:25:00.091Z,99515.52
2022-10-01T02:28:04.033Z,99509.59
2022-10-01T02:30:55.497Z,99508.59
2022-10-01T02:33:46.887Z,99512.30
2022-10-01T02:36:37.984Z,99506.30
2022-10-01T02:39:30.362Z,99500.90
2022-10-01T02:42:21.984Z,99499.73
2022-10-01T02:45:11.828Z,99503.73
2022-10-01T02:48:08.945Z,99500.99
2022-10-01T02:51:59.621Z,99500.79
2022-10-01T02:55:24.545Z,99500.85
2022-10-01T02:58:12.803Z,99499.71
2022-10-01T03:01:00.620Z,99495.66
2022-10-01T03:03:48.331Z,99494.34
2022-10-01T03:06:36.332Z,99497.09
2022-10-01T03:09:24.415Z,99489.39
2022-10-01T03:12:12.481Z,99484.73
2022-10-01T03:15:00.266Z,99481.09
2022-10-01T03:17:53.167Z,99481.69
2022-10-01T03:20:41.227Z,99482.70
2022-10-01T03:23:29.353Z,99476.90
2022-10-01T03:26:16.988Z,99476.86
2022-10-01T03:29:06.447Z,99477.02
2022-10-01T03:31:54.852Z,99474.45
2022-10-01T03:34:42.538Z,99473.23
2022-10-01T03:37:30.473Z,99468.95
2022-10-01T03:40:18.166Z,99469.52
2022-10-01T03:43:06.200Z,99468.30
2022-10-01T03:45:54.260Z,99467.60
2022-10-01T03:48:42.219Z,99466.42
2022-10-01T03:51:31.154Z,99466.05
2022-10-01T03:54:20.467Z,99465.08
2022-10-01T03:57:08.138Z,99464.32
2022-10-01T03:59:58.834Z,99462.15
2022-10-01T04:02:46.668Z,99460.16
2022-10-01T04:05:34.451Z,99460.88
2022-10-01T04:08:24.461Z,99458.66
2022-10-01T04:11:12.945Z,99457.11
2022-10-01T04:14:00.960Z,99451.70
2022-10-01T04:16:50.876Z,99454.19
2022-10-01T04:19:38.670Z,99454.55
2022-10-01T04:22:26.909Z,99451.41
2022-10-01T04:25:15.414Z,99450.70
2022-10-01T04:28:07.506Z,99453.10
2022-10-01T04:31:15.546Z,99452.77
2022-10-01T04:34:03.667Z,99455.59
2022-10-01T04:36:51.483Z,99453.60
2022-10-01T04:39:39.430Z,99456.74
2022-10-01T04:42:27.375Z,99451.88
2022-10-01T04:45:15.626Z,99452.17
2022-10-01T04:48:03.642Z,99454.67
2022-10-01T04:50:52.238Z,99452.58
2022-10-01T04:53:40.168Z,99454.42
2022-10-01T04:56:28.226Z,99460.77
2022-10-01T04:59:16.235Z,99458.58
2022-10-01T05:02:04.398Z,99459.77
2022-10-01T05:04:52.202Z,99458.55
2022-10-01T05:07:40.895Z,99459.00
2022-10-01T05:10:28.956Z,99461.52
2022-10-01T05:13:16.712Z,99463.66
2022-10-01T05:16:04.865Z,99466.61
2022-10-01T05:18:54.999Z,99466.66
2022-10-01T05:21:43.339Z,99464.92
2022-10-01T05:24:30.878Z,99466.05
2022-10-01T05:27:19.699Z,99462.75
2022-10-01T05:30:11.070Z,99457.32
2022-10-01T05:33:02.217Z,99462.95
2022-10-01T05:35:50.892Z,99463.73
2022-10-01T05:38:39.113Z,99460.94
2022-10-01T05:41:27.176Z,99460.31
2022-10-01T05:44:14.967Z,99452.70
2022-10-01T05:47:03.768Z,99447.40
2022-10-01T05:49:51.397Z,99449.34
2022-10-01T05:52:39.303Z,99446.52
2022-10-01T05:55:37.615Z,99444.98
2022-10-01T05:58:25.282Z,99445.31
2022-10-01T06:01:13.959Z,99434.48
2022-10-01T06:04:02.085Z,99436.79
2022-10-01T06:06:49.771Z,99433.73
2022-10-01T06:09:37.744Z,99435.21
2022-10-01T06:12:32.690Z,99427.06
2022-10-01T06:15:21.853Z,99426.09
2022-10-01T06:18:11.694Z,99420.08
2022-10-01T06:21:00.033Z,99419.79
2022-10-01T06:23:52.565Z,99421.88
2022-10-01T06:26:40.556Z,99422.62
2022-10-01T06:29:28.580Z,99420.45
2022-10-01T06:32:19.882Z,99413.24
2022-10-01T06:35:07.860Z,99413.19
2022-10-01T06:37:55.794Z,99409.56
2022-10-01T06:40:44.350Z,99409.79
2022-10-01T06:43:33.684Z,99408.35
2022-10-01T06:46:21.720Z,99403.90
2022-10-01T06:49:09.815Z,99401.06
2022-10-01T06:52:16.108Z,99391.66
2022-10-01T06:55:04.720Z,99379.66
2022-10-01T06:57:58.722Z,99371.04
2022-10-01T07:00:47.812Z,99365.88
2022-10-01T07:03:36.267Z,99363.59
2022-10-01T07:06:24.182Z,99354.23
2022-10-01T07:09:12.008Z,99354.38
2022-10-01T07:11:59.859Z,99351.67
2022-10-01T07:14:48.303Z,99348.73
2022-10-01T07:17:45.159Z,99349.52
2022-10-01T07:20:36.200Z,99349.55
2022-10-01T07:23:24.644Z,99343.41
2022-10-01T07:26:12.666Z,99341.21
2022-10-01T07:29:01.531Z,99333.55
2022-10-01T07:31:50.999Z,99331.27
2022-10-01T07:34:40.486Z,99324.44
2022-10-01T07:37:28.348Z,99323.11
2022-10-01T07:40:18.943Z,99324.49
2022-10-01T07:43:07.125Z,99314.23
2022-10-01T07:45:58.446Z,99305.22
2022-10-01T07:48:49.634Z,99301.59
2022-10-01T07:51:37.314Z,99298.48
2022-10-01T07:54:26.264Z,99294.52
2022-10-01T07:57:15.518Z,99290.77
2022-10-01T08:00:03.474Z,99289.73
2022-10-01T08:03:01.713Z,99288.52
2022-10-01T08:05:49.969Z,99278.09
2022-10-01T08:08:37.888Z,99276.21
2022-10-01T08:11:25.772Z,99281.67
2022-10-01T08:14:13.891Z,99280.98
2022-10-01T08:17:04.071Z,99275.95
2022-10-01T08:19:51.857Z,99262.63
2022-10-01T08:22:42.700Z,99259.02
2022-10-01T08:25:36.589Z,99254.78
2022-10-01T08:28:31.538Z,99253.67
2022-10-01T08:31:19.285Z,99250.92
2022-10-01T08:34:08.248Z,99241.55
2022-10-01T08:36:55.969Z,99245.30
2022-10-01T08:39:44.148Z,99239.60
2022-10-01T08:42:55.695Z,99235.20
2022-10-01T08:46:00.660Z,99231.11
2022-10-01T08:49:07.484Z,99227.27
2022-10-01T08:52:30.909Z,99227.77
2022-10-01T08:55:27.324Z,99221.27
2022-10-01T08:58:26.223Z,99216.08
2022-10-01T09:01:14.395Z,99216.54
2022-10-01T09:04:02.415Z,99205.67
2022-10-01T09:07:02.415Z,99204.98
2022-10-01T09:10:17.343Z,99197.47
2022-10-01T09:13:52.380Z,99187.89
2022-10-01T09:17:21.401Z,99180.46
2022-10-01T09:20:29.435Z,99179.34
2022-10-01T09:23:29.039Z,99180.86
2022-10-01T09:26:18.311Z,99176.85
2022-10-01T09:29:17.217Z,99166.77
2022-10-01T09:32:06.180Z,99170.50
2022-10-01T09:34:55.007Z,99165.23
2022-10-01T09:38:07.586Z,99159.71
2022-10-01T09:40:58.631Z,99157.80
2022-10-01T09:43:47.971Z,99146.23
2022-10-01T09:46:35.988Z,99141.14
2022-10-01T09:49:39.859Z,99144.83
2022-10-01T09:52:35.263Z,99140.29
2022-10-01T09:55:40.815Z,99140.38
2022-10-01T09:58:30.313Z,99132.34
2022-10-01T10:01:56.750Z,99131.72
2022-10-01T10:04:44.816Z,99131.16
2022-10-01T10:07:35.180Z,99124.33
2022-10-01T10:10:29.865Z,99128.70
2022-10-01T10:13:39.385Z,99124.63
2022-10-01T10:16:37.831Z,99117.96
2022-10-01T10:19:29.595Z,99114.77
2022-10-01T10:22:28.588Z,99110.89
2022-10-01T10:25:25.223Z,99111.36
2022-10-01T10:28:25.773Z,99109.64
2022-10-01T10:31:21.970Z,99108.94
2022-10-01T10:34:31.992Z,99107.40
2022-10-01T10:37:30.196Z,99106.48
2022-10-01T10:40:29.502Z,99101.78
2022-10-01T10:43:26.926Z,99095.04
2022-10-01T10:46:29.799Z,99086.77
2022-10-01T10:49:31.581Z,99084.80
2022-10-01T10:52:37.895Z,99079.18
2022-10-01T10:55:31.533Z,99069.67
2022-10-01T10:58:19.387Z,99065.48
2022-10-01T11:01:13.731Z,99066.85
2022-10-01T11:04:02.122Z,99061.83
2022-10-01T11:07:01.361Z,99052.77
2022-10-01T11:10:13.475Z,99046.30
2022-10-01T11:13:26.485Z,99042.41
2022-10-01T11:16:36.362Z,99038.18
2022-10-01T11:19:51.794Z,99026.06
2022-10-01T11:23:20.972Z,99022.95
2022-10-01T11:26:18.259Z,99016.95
2022-10-01T11:29:50.776Z,99013.06
2022-10-01T11:33:25.759Z,99007.16
2022-10-01T11:36:19.891Z,99002.59
2022-10-01T11:39:20.282Z,98997.95
2022-10-01T11:42:24.809Z,98994.93
2022-10-01T11:45:25.037Z,98997.19
2022-10-01T11:48:47.297Z,98996.92
2022-10-01T11:51:48.787Z,99001.97
2022-10-01T11:54:56.184Z,98994.65
2022-10-01T11:58:05.380Z,98998.49
2022-10-01T12:01:42.468Z,98993.95
2022-10-01T12:04:42.165Z,98993.86
2022-10-01T12:07:39.650Z,98988.19
2022-10-01T12:10:44.976Z,98991.39
2022-10-01T12:13:42.967Z,98984.97
2022-10-01T12:16:44.951Z,98979.88
2022-10-01T12:19:41.817Z,98976.23
2022-10-01T12:22:41.485Z,98974.50
2022-10-01T12:25:47.104Z,98968.11
2022-10-01T12:29:04.332Z,98962.04
2022-10-01T12:32:00.721Z,98959.77
2022-10-01T12:35:12.463Z,98952.48
2022-10-01T12:38:19.859Z,98946.42
2022-10-01T12:41:30.152Z,98946.30
2022-10-01T12:44:49.389Z,98943.98
2022-10-01T12:48:16.939Z,98941.15
2022-10-01T12:51:53.189Z,98940.16
2022-10-01T12:54:57.787Z,98937.92
2022-10-01T12:58:22.231Z,98931.95
2022-10-01T13:01:26.244Z,98930.79
2022-10-01T13:04:40.557Z,98930.45
2022-10-01T13:08:18.807Z,98929.86
2022-10-01T13:11:42.320Z,98925.33
2022-10-01T13:14:33.563Z,98919.13
2022-10-01T13:17:54.907Z,98917.09
2022-10-01T13:21:16.730Z,98915.14
2022-10-01T13:24:32.415Z,98911.04
2022-10-01T13:27:36.036Z,98906.25
2022-10-01T13:30:28.025Z,98905.42
2022-10-01T13:33:29.338Z,98899.73
2022-10-01T13:36:29.313Z,98897.73
2022-10-01T13:39:24.385Z,98894.70
2022-10-01T13:42:44.739Z,98893.84
2022-10-01T13:45:45.923Z,98890.04
2022-10-01T13:48:36.703Z,98886.89
2022-10-01T13:51:36.138Z,98883.96
2022-10-01T13:54:33.089Z,98884.73
2022-10-01T13:57:39.154Z,98886.34
2022-10-01T14:00:27.524Z,98882.84
2022-10-01T14:03:42.941Z,98879.20
2022-10-01T14:06:36.922Z,98876.84
2022-10-01T14:09:34.296Z,98877.07
2022-10-01T14:13:04.706Z,98870.88
2022-10-01T14:16:00.291Z,98867.79
2022-10-01T14:18:49.941Z,98870.98
2022-10-01T14:22:12.121Z,98860.33
2022-10-01T14:25:23.748Z,98857.38
2022-10-01T14:28:15.594Z,98856.77
2022-10-01T14:31:11.425Z,98857.51
2022-10-01T14:34:07.812Z,98852.71
2022-10-01T14:36:56.978Z,98849.80
2022-10-01T14:39:44.722Z,98848.56
2022-10-01T14:42:32.564Z,98845.31
2022-10-01T14:45:20.748Z,98848.82
2022-10-01T14:48:10.496Z,98843.56
2022-10-01T14:51:05.768Z,98846.02
2022-10-01T14:53:56.838Z,98848.42
2022-10-01T14:56:44.690Z,98843.36
2022-10-01T14:59:40.047Z,98842.56
2022-10-01T15:02:29.320Z,98840.45
2022-10-01T15:05:33.578Z,98836.65
2022-10-01T15:08:39.273Z,98829.56
2022-10-01T15:11:31.117Z,98825.41
2022-10-01T15:14:25.736Z,98824.98
2022-10-01T15:17:23.929Z,98822.55
2022-10-01T15:20:13.570Z,98824.17
2022-10-01T15:23:01.925Z,98821.08
2022-10-01T15:25:50.687Z,98822.66
2022-10-01T15:28:38.379Z,98825.56
2022-10-01T15:31:26.337Z,98818.96
2022-10-01T15:34:18.040Z,98811.79
2022-10-01T15:37:05.972Z,98810.92
2022-10-01T15:39:54.763Z,98807.02
2022-10-01T15:43:07.826Z,98809.05
2022-10-01T15:46:16.818Z,98802.75
2022-10-01T15:49:31.226Z,98805.61
2022-10-01T15:52:37.680Z,98799.23
2022-10-01T15:55:53.400Z,98796.15
2022-10-01T15:58:52.724Z,98793.48
2022-10-01T16:01:41.347Z,98796.75
2022-10-01T16:04:29.165Z,98795.97
2022-10-01T16:07:26.374Z,98791.12
2022-10-01T16:10:36.955Z,98792.83
2022-10-01T16:13:38.773Z,98790.95
2022-10-01T16:16:30.069Z,98792.70
2022-10-01T16:19:28.478Z,98788.64
2022-10-01T16:22:19.413Z,98786.92
2022-10-01T16:25:32.154Z,98786.77
2022-10-01T16:28:31.187Z,98784.18
2022-10-01T16:31:19.391Z,98785.71
2022-10-01T16:34:17.027Z,98779.09
2022-10-01T16:37:07.058Z,98776.46
2022-10-01T16:39:57.221Z,98766.67
2022-10-01T16:42:46.381Z,98768.64
2022-10-01T16:45:39.009Z,98762.33
2022-10-01T16:48:26.978Z,98756.13
2022-10-01T16:51:15.088Z,98753.65
2022-10-01T16:54:03.851Z,98750.94
2022-10-01T16:56:53.855Z,98745.60
2022-10-01T16:59:42.720Z,98738.42
2022-10-01T17:02:30.729Z,98732.68
2022-10-01T17:05:25.620Z,98731.39
2022-10-01T17:08:15.419Z,98738.59
2022-10-01T17:11:04.759Z,98738.15
2022-10-01T17:13:52.833Z,98735.50
2022-10-01T17:16:40.924Z,98729.96
2022-10-01T17:19:29.584Z,98728.52
2022-10-01T17:22:18.128Z,98729.63
2022-10-01T17:25:08.078Z,98726.59
2022-10-01T17:27:56.112Z,98729.67
2022-10-01T17:30:46.810Z,98731.61
2022-10-01T17:33:34.880Z,98728.56
2022-10-01T17:36:23.071Z,98731.70
2022-10-01T17:39:10.751Z,98729.59
2022-10-01T17:41:58.785Z,98730.16
2022-10-01T17:44:46.768Z,98728.89
2022-10-01T17:47:35.466Z,98729.23
2022-10-01T17:50:23.963Z,98728.62
2022-10-01T17:53:13.056Z,98726.14
2022-10-01T17:56:16.295Z,98727.05
2022-10-01T17:59:04.281Z,98724.14
2022-10-01T18:01:53.322Z,98725.50
2022-10-01T18:04:43.672Z,98725.91
2022-10-01T18:07:31.754Z,98722.66
2022-10-01T18:10:19.796Z,98729.16
2022-10-01T18:13:07.639Z,98738.58
2022-10-01T18:16:05.847Z,98733.06
2022-10-01T18:22:13.649Z,98724.92
2022-10-01T18:25:03.747Z,98719.55
2022-10-01T18:27:51.431Z,98721.44
2022-10-01T18:30:39.178Z,98715.29
2022-10-01T18:33:27.080Z,98718.42
2022-10-01T18:36:39.231Z,98717.74
2022-10-01T18:39:48.025Z,98718.07
2022-10-01T18:42:57.942Z,98713.09
2022-10-01T18:46:53.055Z,98706.96
2022-10-01T18:50:03.409Z,98705.63
2022-10-01T18:53:20.887Z,98704.34
2022-10-01T18:56:34.255Z,98704.20
2022-10-01T19:00:08.681Z,98699.09
2022-10-01T19:03:15.411Z,98703.74
2022-10-01T19:06:30.901Z,98700.99
2022-10-01T19:09:54.411Z,98702.09
2022-10-01T19:13:07.899Z,98698.63
2022-10-01T19:16:07.096Z,98696.95
2022-10-01T19:19:17.014Z,98695.21
2022-10-01T19:22:45.442Z,98694.91
2022-10-01T19:25:51.609Z,98694.31
2022-10-01T19:29:12.899Z,98696.55
2022-10-01T19:32:07.614Z,98700.79
2022-10-01T19:35:13.689Z,98702.62
2022-10-01T19:38:13.712Z,98706.21
2022-10-01T19:41:13.314Z,98708.91
2022-10-01T19:44:09.317Z,98703.94
2022-10-01T19:47:13.818Z,98702.06
2022-10-01T19:50:12.676Z,98701.36
2022-10-01T19:53:03.468Z,98701.41
2022-10-01T19:55:53.070Z,98698.98
2022-10-01T19:58:41.499Z,98697.94
2022-10-01T20:01:39.448Z,98697.30
2022-10-01T20:05:05.322Z,98692.19
2022-10-01T20:08:25.132Z,98695.75
2022-10-01T20:11:29.943Z,98693.14
2022-10-01T20:15:03.483Z,98693.27
2022-10-01T20:18:34.584Z,98693.11
2022-10-01T20:21:44.073Z,98696.64
2022-10-01T20:24:49.335Z,98699.33
2022-10-01T20:28:12.355Z,98699.30
2022-10-01T20:31:35.061Z,98698.88
2022-10-01T20:34:48.319Z,98695.67
2022-10-01T20:37:52.118Z,98696.41
2022-10-01T20:40:43.339Z,98701.39
2022-10-01T20:43:50.395Z,98702.31
2022-10-01T20:46:50.682Z,98702.69
2022-10-01T20:49:56.734Z,98701.29
2022-10-01T20:53:04.022Z,98696.83
2022-10-01T20:56:06.127Z,98694.88
2022-10-01T20:59:23.755Z,98692.09
2022-10-01T21:02:24.992Z,98689.45
2022-10-01T21:05:27.120Z,98689.79
2022-10-01T21:08:34.644Z,98685.63
2022-10-01T21:11:36.118Z,98686.77
2022-10-01T21:14:52.898Z,98684.61
2022-10-01T21:17:43.546Z,98682.09
2022-10-01T21:21:02.032Z,98683.77
2022-10-01T21:24:32.870Z,98688.11
2022-10-01T21:28:04.196Z,98694.91
2022-10-01T21:31:25.377Z,98695.52
2022-10-01T21:34:28.778Z,98691.11
2022-10-01T21:37:41.693Z,98691.84
2022-10-01T21:40:54.595Z,98692.50
2022-10-01T21:44:19.860Z,98692.57
2022-10-01T21:47:38.354Z,98696.27
2022-10-01T21:50:49.138Z,98695.18
2022-10-01T21:54:08.787Z,98696.87
2022-10-01T21:57:33.537Z,98694.77
2022-10-01T22:00:28.846Z,98696.95
2022-10-01T22:03:36.352Z,98700.31
2022-10-01T22:06:37.066Z,98700.90
2022-10-01T22:09:36.119Z,98698.94
2022-10-01T22:12:29.205Z,98702.11
2022-10-01T22:15:40.596Z,98703.42
2022-10-01T22:19:04.331Z,98705.35
2022-10-01T22:22:03.203Z,98705.45
2022-10-01T22:24:54.670Z,98699.23
2022-10-01T22:28:08.573Z,98700.52
2022-10-01T22:31:03.288Z,98705.64
2022-10-01T22:34:17.615Z,98706.70
2022-10-01T22:37:26.953Z,98704.48
2022-10-01T22:40:23.496Z,98705.10
2022-10-01T22:43:14.391Z,98704.89
2022-10-01T22:46:24.823Z,98701.67
2022-10-01T22:49:58.482Z,98708.29
2022-10-01T22:53:26.428Z,98709.59
2022-10-01T22:56:23.817Z,98706.64
2022-10-01T22:59:23.651Z,98701.25
2022-10-01T23:02:53.229Z,98702.67
2022-10-01T23:06:05.805Z,98697.85
2022-10-01T23:09:26.846Z,98693.36
2022-10-01T23:12:37.889Z,98698.20
2022-10-01T23:16:09.710Z,98711.77
2022-10-01T23:19:28.009Z,98712.86
2022-10-01T23:23:01.730Z,98713.92
2022-10-01T23:26:25.095Z,98713.41
2022-10-01T23:29:41.260Z,98714.74
2022-10-01T23:32:47.960Z,98713.55
2022-10-01T23:35:57.512Z,98710.56
2022-10-01T23:39:19.593Z,98707.79
2022-10-01T23:42:48.429Z,98705.56
2022-10-01T23:45:51.194Z,98707.43
2022-10-01T23:49:01.028Z,98708.48
2022-10-01T23:52:19.599Z,98712.10
2022-10-01T23:55:38.622Z,98712.77
2022-10-01T23:58:30.289Z,98717.66
